createdAt,value
2023-05-09T00:01:31.586Z,6.50
2023-05-09T00:04:00.086Z,6.50
2023-05-09T00:06:28.159Z,6.50
2023-05-09T00:08:56.170Z,6.50
2023-05-09T00:11:24.410Z,6.50
2023-05-09T00:13:53.367Z,6.50
2023-05-09T00:16:23.960Z,6.40
2023-05-09T00:18:53.398Z,6.40
2023-05-09T00:21:21.403Z,6.40
2023-05-09T00:23:49.395Z,6.40
2023-05-09T00:26:17.650Z,6.40
2023-05-09T00:28:45.647Z,6.30
2023-05-09T00:31:13.611Z,6.30
2023-05-09T00:33:41.654Z,6.30
2023-05-09T00:36:11.097Z,6.30
2023-05-09T00:38:39.358Z,6.30
2023-05-09T00:41:07.376Z,6.20
2023-05-09T00:43:35.649Z,6.20
2023-05-09T00:46:03.747Z,6.20
2023-05-09T00:48:32.861Z,6.30
2023-05-09T00:51:02.254Z,6.20
2023-05-09T00:53:32.368Z,6.20
2023-05-09T00:56:01.759Z,6.20
2023-05-09T00:58:30.762Z,6.20
2023-05-09T01:00:59.102Z,6.20
2023-05-09T01:03:27.360Z,6.10
2023-05-09T01:05:59.487Z,6.20
2023-05-09T01:08:42.086Z,6.10
2023-05-09T01:11:14.032Z,6.10
2023-05-09T01:13:51.716Z,6.10
2023-05-09T01:16:26.389Z,6.10
2023-05-09T01:19:00.739Z,6.00
2023-05-09T01:21:32.271Z,6.00
2023-05-09T01:24:35.243Z,6.00
2023-05-09T01:27:22.259Z,5.90
2023-05-09T01:29:57.822Z,5.90
2023-05-09T01:32:27.809Z,5.90
2023-05-09T01:34:57.197Z,5.90
2023-05-09T01:37:30.800Z,5.90
2023-05-09T01:40:01.844Z,5.90
2023-05-09T01:42:41.832Z,5.80
2023-05-09T01:45:14.307Z,5.80
2023-05-09T01:47:44.091Z,5.80
2023-05-09T01:50:13.670Z,5.80
2023-05-09T01:52:43.813Z,5.70
2023-05-09T01:55:13.481Z,5.70
2023-05-09T01:57:43.093Z,5.70
2023-05-09T02:00:15.036Z,5.70
2023-05-09T02:02:44.110Z,5.70
2023-05-09T02:05:13.391Z,5.70
2023-05-09T02:07:42.913Z,5.70
2023-05-09T02:10:11.503Z,5.60
2023-05-09T02:12:40.058Z,5.70
2023-05-09T02:15:09.487Z,5.60
2023-05-09T02:17:39.122Z,5.60
2023-05-09T02:20:09.804Z,5.60
2023-05-09T02:22:38.257Z,5.60
2023-05-09T02:25:09.206Z,5.50
2023-05-09T02:27:39.601Z,5.50
2023-05-09T02:30:12.678Z,5.50
2023-05-09T02:32:45.327Z,5.50
2023-05-09T02:35:16.102Z,5.50
2023-05-09T02:37:45.793Z,5.50
2023-05-09T02:40:16.101Z,5.40
2023-05-09T02:42:44.105Z,5.40
2023-05-09T02:45:12.897Z,5.40
2023-05-09T02:47:42.570Z,5.40
2023-05-09T02:50:11.046Z,5.40
2023-05-09T02:52:39.086Z,5.40
2023-05-09T02:55:08.382Z,5.30
2023-05-09T02:57:36.779Z,5.30
2023-05-09T03:00:08.807Z,5.30
2023-05-09T03:02:37.146Z,5.30
2023-05-09T03:05:07.496Z,5.20
2023-05-09T03:07:35.476Z,5.20
2023-05-09T03:10:03.736Z,5.20
2023-05-09T03:12:31.712Z,5.20
2023-05-09T03:15:01.162Z,5.20
2023-05-09T03:17:29.157Z,5.20
2023-05-09T03:19:57.102Z,5.20
2023-05-09T03:22:26.464Z,5.20
2023-05-09T03:24:54.440Z,5.20
2023-05-09T03:27:23.739Z,5.20
2023-05-09T03:29:51.951Z,5.20
2023-05-09T03:32:19.906Z,5.20
2023-05-09T03:34:47.893Z,5.20
2023-05-09T03:37:15.905Z,5.20
2023-05-09T03:39:45.487Z,5.20
2023-05-09T03:42:13.456Z,5.20
2023-05-09T03:44:41.438Z,5.20
2023-05-09T03:47:09.392Z,5.20
2023-05-09T03:49:37.329Z,5.20
2023-05-09T03:52:06.816Z,5.20
2023-05-09T03:54:34.762Z,5.20
2023-05-09T03:57:04.366Z,5.20
2023-05-09T03:59:32.350Z,5.20
2023-05-09T04:02:00.396Z,5.20
2023-05-09T04:04:28.540Z,5.20
2023-05-09T04:06:56.573Z,5.30
2023-05-09T04:09:24.681Z,5.20
2023-05-09T04:11:52.873Z,5.30
2023-05-09T04:14:22.227Z,5.30
2023-05-09T04:16:50.237Z,5.40
2023-05-09T04:19:18.258Z,5.40
2023-05-09T04:21:46.212Z,5.40
2023-05-09T04:24:14.162Z,5.50
2023-05-09T04:26:42.241Z,5.50
2023-05-09T04:29:10.449Z,5.50
2023-05-09T04:31:39.881Z,5.50
2023-05-09T04:34:08.054Z,5.50
2023-05-09T04:36:36.234Z,5.60
2023-05-09T04:39:05.118Z,5.60
2023-05-09T04:41:33.127Z,5.70
2023-05-09T04:44:01.950Z,5.70
2023-05-09T04:46:30.016Z,5.70
2023-05-09T04:48:59.380Z,5.80
2023-05-09T04:51:27.361Z,5.90
2023-05-09T04:53:55.311Z,6.00
2023-05-09T04:56:23.347Z,6.20
2023-05-09T04:58:51.552Z,6.30
2023-05-09T05:01:19.629Z,6.30
2023-05-09T05:03:47.671Z,6.50
2023-05-09T05:06:16.982Z,6.60
2023-05-09T05:08:45.291Z,6.70
2023-05-09T05:11:13.709Z,6.90
2023-05-09T05:13:41.998Z,7.10
2023-05-09T05:16:10.048Z,7.20
2023-05-09T05:18:38.028Z,7.40
2023-05-09T05:21:06.019Z,7.60
2023-05-09T05:23:35.344Z,7.90
2023-05-09T05:26:03.770Z,8.00
2023-05-09T05:28:31.707Z,8.20
2023-05-09T05:30:59.713Z,8.50
2023-05-09T05:33:27.671Z,8.60
2023-05-09T05:35:55.641Z,8.80
2023-05-09T05:38:23.599Z,9.00
2023-05-09T05:40:53.961Z,9.20
2023-05-09T05:43:21.958Z,9.50
2023-05-09T05:45:49.944Z,9.50
2023-05-09T05:48:17.965Z,9.60
2023-05-09T05:50:45.959Z,9.70
2023-05-09T05:53:13.958Z,9.90
2023-05-09T05:55:44.206Z,10.00
2023-05-09T05:58:13.617Z,10.20
2023-05-09T06:00:41.770Z,10.50
2023-05-09T06:03:14.122Z,10.80
2023-05-09T06:05:46.510Z,10.90
2023-05-09T06:08:14.531Z,11.00
2023-05-09T06:10:42.731Z,11.00
2023-05-09T06:13:10.834Z,11.30
2023-05-09T06:15:40.232Z,11.30
2023-05-09T06:18:09.065Z,11.60
2023-05-09T06:20:37.170Z,11.60
2023-05-09T06:23:05.128Z,11.70
2023-05-09T06:25:33.239Z,11.80
2023-05-09T06:28:01.173Z,12.00
2023-05-09T06:30:29.315Z,12.10
2023-05-09T06:32:59.989Z,12.10
2023-05-09T06:35:28.123Z,12.10
2023-05-09T06:37:56.103Z,12.20
2023-05-09T06:40:24.114Z,12.20
2023-05-09T06:42:54.322Z,12.40
2023-05-09T06:45:22.424Z,12.60
2023-05-09T06:47:50.521Z,12.60
2023-05-09T06:50:19.902Z,12.80
2023-05-09T06:52:48.279Z,12.70
2023-05-09T06:55:16.543Z,12.70
2023-05-09T06:57:44.916Z,12.70
2023-05-09T07:00:14.096Z,12.80
2023-05-09T07:02:43.102Z,12.90
2023-05-09T07:05:11.925Z,12.90
2023-05-09T07:07:42.581Z,12.80
2023-05-09T07:10:12.515Z,12.90
2023-05-09T07:12:42.701Z,13.00
2023-05-09T07:15:11.954Z,13.30
2023-05-09T07:17:40.171Z,13.60
2023-05-09T07:20:09.080Z,13.80
2023-05-09T07:22:37.761Z,14.10
2023-05-09T07:25:09.124Z,14.40
2023-05-09T07:27:37.567Z,14.40
2023-05-09T07:30:06.300Z,14.50
2023-05-09T07:32:34.384Z,14.40
2023-05-09T07:35:03.323Z,14.70
2023-05-09T07:37:31.296Z,14.90
2023-05-09T07:39:59.282Z,15.10
2023-05-09T07:42:30.257Z,15.20
2023-05-09T07:44:59.136Z,15.10
2023-05-09T07:47:27.254Z,15.10
2023-05-09T07:49:55.361Z,15.10
2023-05-09T07:52:23.506Z,15.30
2023-05-09T07:54:51.766Z,15.00
2023-05-09T07:57:19.730Z,15.10
2023-05-09T07:59:49.168Z,15.40
2023-05-09T08:02:17.169Z,15.40
2023-05-09T08:04:48.605Z,15.40
2023-05-09T08:07:16.804Z,15.50
2023-05-09T08:09:44.812Z,15.50
2023-05-09T08:12:12.784Z,15.60
2023-05-09T08:14:40.749Z,15.80
2023-05-09T08:17:10.175Z,15.40
2023-05-09T08:19:38.391Z,15.50
2023-05-09T08:22:06.368Z,15.70
2023-05-09T08:24:34.622Z,15.90
2023-05-09T08:27:02.679Z,16.10
2023-05-09T08:29:31.170Z,15.60
2023-05-09T08:31:59.152Z,15.70
2023-05-09T08:34:28.642Z,15.80
2023-05-09T08:36:56.584Z,16.10
2023-05-09T08:39:27.389Z,16.00
2023-05-09T08:41:59.376Z,15.60
2023-05-09T08:44:27.940Z,15.80
2023-05-09T08:46:59.850Z,15.80
2023-05-09T08:49:29.258Z,15.90
2023-05-09T08:51:57.727Z,15.90
2023-05-09T08:54:26.384Z,16.20
2023-05-09T08:56:55.260Z,16.00
2023-05-09T08:59:23.630Z,16.10
2023-05-09T09:01:51.926Z,16.50
2023-05-09T09:04:20.225Z,16.70
2023-05-09T09:06:49.910Z,16.50
2023-05-09T09:09:20.256Z,16.60
2023-05-09T09:11:49.246Z,17.00
2023-05-09T09:14:23.579Z,17.10
2023-05-09T09:16:52.812Z,17.10
2023-05-09T09:19:23.434Z,17.10
2023-05-09T09:21:55.020Z,16.90
2023-05-09T09:24:25.797Z,17.10
2023-05-09T09:26:53.824Z,17.10
2023-05-09T09:29:22.853Z,17.10
2023-05-09T09:31:54.758Z,17.30
2023-05-09T09:34:24.793Z,17.50
2023-05-09T09:36:54.149Z,17.80
2023-05-09T09:39:23.056Z,17.90
2023-05-09T09:41:51.086Z,18.00
2023-05-09T09:44:21.152Z,18.10
2023-05-09T09:46:51.363Z,18.20
2023-05-09T09:49:22.590Z,18.50
2023-05-09T09:51:56.979Z,18.30
2023-05-09T09:54:27.799Z,18.30
2023-05-09T09:56:56.913Z,18.40
2023-05-09T09:59:27.250Z,18.30
2023-05-09T10:01:59.698Z,18.40
2023-05-09T10:04:30.832Z,18.30
2023-05-09T10:07:02.364Z,18.40
2023-05-09T10:09:30.754Z,18.30
2023-05-09T10:12:00.560Z,18.40
2023-05-09T10:14:29.124Z,18.50
2023-05-09T10:16:58.088Z,18.50
2023-05-09T10:19:29.582Z,18.80
2023-05-09T10:22:04.175Z,19.00
2023-05-09T10:24:40.782Z,18.70
2023-05-09T10:27:12.072Z,18.90
2023-05-09T10:29:45.688Z,18.60
2023-05-09T10:32:20.434Z,18.40
2023-05-09T10:34:52.735Z,18.70
2023-05-09T10:37:22.982Z,18.50
2023-05-09T10:39:56.622Z,18.70
2023-05-09T10:42:25.191Z,18.90
2023-05-09T10:44:54.871Z,18.70
2023-05-09T10:47:23.363Z,18.70
2023-05-09T10:49:51.501Z,18.70
2023-05-09T10:52:21.922Z,18.80
2023-05-09T10:55:00.544Z,18.70
2023-05-09T10:57:30.222Z,18.50
2023-05-09T10:59:59.089Z,18.60
2023-05-09T11:02:29.508Z,18.60
2023-05-09T11:05:17.553Z,18.40
2023-05-09T11:07:46.209Z,18.20
2023-05-09T11:10:18.791Z,18.30
2023-05-09T11:12:58.155Z,18.10
2023-05-09T11:15:27.465Z,17.80
2023-05-09T11:18:07.485Z,17.50
2023-05-09T11:20:44.924Z,17.50
2023-05-09T11:23:18.262Z,17.60
2023-05-09T11:25:49.606Z,17.70
2023-05-09T11:28:28.834Z,17.50
2023-05-09T11:31:10.370Z,17.30
2023-05-09T11:33:39.185Z,17.30
2023-05-09T11:36:18.408Z,17.20
2023-05-09T11:38:47.623Z,17.40
2023-05-09T11:41:17.362Z,17.70
2023-05-09T11:43:45.713Z,17.90
2023-05-09T11:46:13.821Z,18.20
2023-05-09T11:48:42.842Z,18.10
2023-05-09T11:51:18.047Z,18.00
2023-05-09T11:53:46.962Z,18.30
2023-05-09T11:56:17.628Z,18.00
2023-05-09T11:58:48.805Z,18.10
2023-05-09T12:01:17.673Z,18.10
2023-05-09T12:03:46.240Z,18.20
2023-05-09T12:06:18.583Z,18.40
2023-05-09T12:08:47.454Z,18.70
2023-05-09T12:11:17.572Z,18.80
2023-05-09T12:13:50.296Z,18.90
2023-05-09T12:16:19.416Z,18.80
2023-05-09T12:18:50.037Z,18.50
2023-05-09T12:21:19.071Z,18.30
2023-05-09T12:23:50.902Z,18.10
2023-05-09T12:26:23.389Z,18.20
2023-05-09T12:28:52.866Z,18.70
2023-05-09T12:31:21.462Z,18.70
2023-05-09T12:33:49.660Z,18.70
2023-05-09T12:36:18.009Z,18.80
2023-05-09T12:38:56.774Z,19.00
2023-05-09T12:43:57.295Z,18.50
2023-05-09T12:46:25.674Z,18.20
2023-05-09T12:48:53.895Z,18.20
2023-05-09T12:51:24.761Z,18.10
2023-05-09T12:53:52.757Z,17.80
2023-05-09T12:56:22.882Z,17.90
2023-05-09T12:58:54.190Z,17.90
2023-05-09T13:01:24.077Z,17.70
2023-05-09T13:04:05.721Z,17.50
2023-05-09T13:06:34.329Z,17.40
2023-05-09T13:09:05.431Z,17.70
2023-05-09T13:11:33.486Z,17.80
2023-05-09T13:14:04.366Z,17.60
2023-05-09T13:16:32.414Z,17.70
2023-05-09T13:19:01.576Z,17.70
2023-05-09T13:21:29.635Z,17.60
2023-05-09T13:23:57.743Z,17.60
2023-05-09T13:26:27.169Z,17.70
2023-05-09T13:28:55.402Z,17.80
2023-05-09T13:31:25.232Z,17.60
2023-05-09T13:33:54.007Z,17.60
2023-05-09T13:36:22.029Z,17.70
2023-05-09T13:38:50.007Z,17.60
2023-05-09T13:41:22.397Z,17.60
2023-05-09T13:43:50.523Z,17.40
2023-05-09T13:46:19.979Z,17.20
2023-05-09T13:48:49.407Z,17.30
2023-05-09T13:51:17.449Z,17.30
2023-05-09T13:53:45.412Z,17.20
2023-05-09T13:56:14.288Z,17.20
2023-05-09T13:58:42.517Z,17.00
2023-05-09T14:01:10.578Z,17.10
2023-05-09T14:03:38.716Z,17.10
2023-05-09T14:06:09.265Z,17.10
2023-05-09T14:08:39.674Z,17.20
2023-05-09T14:11:08.852Z,17.30
2023-05-09T14:13:36.804Z,17.30
2023-05-09T14:16:05.994Z,17.10
2023-05-09T14:18:33.996Z,17.00
2023-05-09T14:21:01.992Z,16.90
2023-05-09T14:23:31.381Z,16.80
2023-05-09T14:26:02.170Z,16.70
2023-05-09T14:28:30.183Z,16.60
2023-05-09T14:30:58.371Z,16.70
2023-05-09T14:33:27.506Z,16.70
2023-05-09T14:35:55.468Z,16.70
2023-05-09T14:38:23.483Z,16.80
2023-05-09T14:40:52.858Z,16.90
2023-05-09T14:43:22.248Z,17.00
2023-05-09T14:45:50.190Z,17.10
2023-05-09T14:48:18.118Z,17.00
2023-05-09T14:50:46.069Z,16.90
2023-05-09T14:53:14.173Z,16.80
2023-05-09T14:55:42.302Z,16.70
2023-05-09T14:58:13.380Z,16.70
2023-05-09T15:00:41.997Z,16.60
2023-05-09T15:03:10.635Z,16.60
2023-05-09T15:05:38.778Z,16.60
2023-05-09T15:08:06.947Z,16.70
2023-05-09T15:10:35.460Z,16.90
2023-05-09T15:13:05.844Z,16.80
2023-05-09T15:15:38.269Z,16.70
2023-05-09T15:18:09.895Z,16.60
2023-05-09T15:20:37.900Z,16.50
2023-05-09T15:23:06.694Z,16.40
2023-05-09T15:25:34.767Z,16.40
2023-05-09T15:28:07.045Z,16.30
2023-05-09T15:30:38.783Z,16.30
2023-05-09T15:33:07.137Z,16.30
2023-05-09T15:35:35.772Z,16.30
2023-05-09T15:38:04.209Z,16.30
2023-05-09T15:40:35.187Z,16.40
2023-05-09T15:43:07.390Z,16.40
2023-05-09T15:45:38.793Z,16.30
2023-05-09T15:48:07.451Z,16.30
2023-05-09T15:50:35.810Z,16.30
2023-05-09T15:53:06.951Z,16.20
2023-05-09T15:55:38.079Z,16.20
2023-05-09T15:58:06.126Z,16.20
2023-05-09T16:00:34.309Z,16.10
2023-05-09T16:03:03.723Z,16.10
2023-05-09T16:05:31.846Z,16.10
2023-05-09T16:07:59.892Z,16.20
2023-05-09T16:10:27.997Z,16.30
2023-05-09T16:12:56.005Z,16.20
2023-05-09T16:15:24.245Z,16.20
2023-05-09T16:17:52.187Z,16.10
2023-05-09T16:20:21.895Z,16.00
2023-05-09T16:22:49.940Z,16.00
2023-05-09T16:25:18.261Z,15.90
2023-05-09T16:27:46.290Z,15.90
2023-05-09T16:30:16.167Z,15.90
2023-05-09T16:32:44.716Z,15.90
2023-05-09T16:35:15.421Z,15.80
2023-05-09T16:37:44.742Z,15.80
2023-05-09T16:40:16.949Z,15.80
2023-05-09T16:42:45.183Z,15.80
2023-05-09T16:45:15.371Z,15.70
2023-05-09T16:47:45.505Z,15.60
2023-05-09T16:50:13.649Z,15.60
2023-05-09T16:52:41.805Z,15.50
2023-05-09T16:55:11.545Z,15.50
2023-05-09T16:57:39.630Z,15.40
2023-05-09T17:00:09.754Z,15.30
2023-05-09T17:02:38.526Z,15.20
2023-05-09T17:05:07.844Z,15.20
2023-05-09T17:07:35.856Z,15.20
2023-05-09T17:10:03.905Z,15.10
2023-05-09T17:12:33.391Z,15.10
2023-05-09T17:15:01.403Z,15.10
2023-05-09T17:17:29.419Z,15.00
2023-05-09T17:19:57.616Z,15.00
2023-05-09T17:22:25.859Z,14.90
2023-05-09T17:24:55.016Z,14.90
2023-05-09T17:27:23.094Z,14.90
2023-05-09T17:29:55.240Z,14.80
2023-05-09T17:32:25.134Z,14.80
2023-05-09T17:34:53.394Z,14.70
2023-05-09T17:37:21.449Z,14.60
2023-05-09T17:39:49.474Z,14.60
2023-05-09T17:42:17.596Z,14.50
2023-05-09T17:44:46.228Z,14.50
2023-05-09T17:47:15.865Z,14.40
2023-05-09T17:49:43.909Z,14.40
2023-05-09T17:52:11.934Z,14.30
2023-05-09T17:54:40.058Z,14.30
2023-05-09T17:57:08.051Z,14.30
2023-05-09T17:59:40.343Z,14.20
2023-05-09T18:02:08.476Z,14.20
2023-05-09T18:04:38.085Z,14.10
2023-05-09T18:07:06.194Z,14.10
2023-05-09T18:09:35.251Z,14.00
2023-05-09T18:12:03.518Z,14.00
2023-05-09T18:14:31.548Z,13.90
2023-05-09T18:16:59.627Z,13.90
2023-05-09T18:19:27.784Z,13.80
2023-05-09T18:21:57.176Z,13.70
2023-05-09T18:24:25.268Z,13.70
2023-05-09T18:26:55.726Z,13.60
2023-05-09T18:29:24.447Z,13.60
2023-05-09T18:31:56.021Z,13.60
2023-05-09T18:34:28.079Z,13.50
2023-05-09T18:36:57.647Z,13.40
2023-05-09T18:39:25.764Z,13.40
2023-05-09T18:41:54.289Z,13.40
2023-05-09T18:44:22.340Z,13.30
2023-05-09T18:46:50.499Z,13.20
2023-05-09T18:49:18.681Z,13.20
2023-05-09T18:51:46.753Z,13.10
2023-05-09T18:54:20.856Z,13.10
2023-05-09T18:56:49.618Z,13.00
2023-05-09T18:59:17.881Z,12.90
2023-05-09T19:01:47.942Z,12.80
2023-05-09T19:04:19.551Z,12.80
2023-05-09T19:06:47.833Z,12.80
2023-05-09T19:09:16.611Z,12.70
2023-05-09T19:11:46.183Z,12.60
2023-05-09T19:14:20.251Z,12.60
2023-05-09T19:16:48.518Z,12.60
2023-05-09T19:19:21.752Z,12.50
2023-05-09T19:21:59.679Z,12.50
2023-05-09T19:24:27.735Z,12.40
2023-05-09T19:26:58.194Z,12.40
2023-05-09T19:29:28.431Z,12.40
2023-05-09T19:32:05.270Z,12.30
2023-05-09T19:34:37.881Z,12.20
2023-05-09T19:37:08.740Z,12.20
2023-05-09T19:39:36.800Z,12.20
2023-05-09T19:42:06.555Z,12.10
2023-05-09T19:44:34.633Z,12.10
2023-05-09T19:47:05.244Z,12.10
2023-05-09T19:49:35.465Z,12.10
2023-05-09T19:52:05.635Z,12.00
2023-05-09T19:54:35.436Z,12.00
2023-05-09T19:57:12.449Z,12.00
2023-05-09T19:59:40.583Z,11.90
2023-05-09T20:02:09.604Z,11.90
2023-05-09T20:04:38.925Z,11.80
2023-05-09T20:07:07.117Z,11.80
2023-05-09T20:09:35.104Z,11.80
2023-05-09T20:12:05.185Z,11.70
2023-05-09T20:14:38.017Z,11.60
2023-05-09T20:17:09.182Z,11.60
2023-05-09T20:19:37.172Z,11.60
2023-05-09T20:22:05.260Z,11.60
2023-05-09T20:24:33.334Z,11.50
2023-05-09T20:27:04.799Z,11.50
2023-05-09T20:29:34.187Z,11.40
2023-05-09T20:32:03.726Z,11.30
2023-05-09T20:34:31.809Z,11.30
2023-05-09T20:36:59.822Z,11.30
2023-05-09T20:39:27.820Z,11.30
2023-05-09T20:41:58.650Z,11.20
2023-05-09T20:44:26.701Z,11.20
2023-05-09T20:46:56.296Z,11.20
2023-05-09T20:49:27.162Z,11.20
2023-05-09T20:51:55.992Z,11.10
2023-05-09T20:54:26.957Z,11.00
2023-05-09T20:56:56.095Z,11.00
2023-05-09T20:59:24.137Z,11.00
2023-05-09T21:01:55.770Z,10.90
2023-05-09T21:04:26.697Z,10.90
2023-05-09T21:06:54.622Z,10.90
2023-05-09T21:09:22.699Z,10.90
2023-05-09T21:11:50.656Z,10.80
2023-05-09T21:14:18.651Z,10.80
2023-05-09T21:16:46.871Z,10.80
2023-05-09T21:19:17.961Z,10.70
2023-05-09T21:21:47.323Z,10.70
2023-05-09T21:24:18.394Z,10.70
2023-05-09T21:26:46.347Z,10.70
2023-05-09T21:29:14.330Z,10.70
2023-05-09T21:31:42.388Z,10.60
2023-05-09T21:34:10.636Z,10.60
2023-05-09T21:36:39.193Z,10.60
2023-05-09T21:39:09.712Z,10.50
2023-05-09T21:41:38.448Z,10.50
2023-05-09T21:44:07.742Z,10.40
2023-05-09T21:46:36.664Z,10.40
2023-05-09T21:49:04.969Z,10.40
2023-05-09T21:51:35.760Z,10.30
2023-05-09T21:54:03.771Z,10.30
2023-05-09T21:56:33.100Z,10.30
2023-05-09T21:59:01.037Z,10.20
2023-05-09T22:01:30.032Z,10.20
2023-05-09T22:03:58.013Z,10.20
2023-05-09T22:06:26.097Z,10.10
2023-05-09T22:08:54.059Z,10.10
2023-05-09T22:11:22.406Z,10.10
2023-05-09T22:13:52.015Z,10.00
2023-05-09T22:16:22.151Z,10.00
2023-05-09T22:18:50.138Z,10.00
2023-05-09T22:21:18.161Z,9.90
2023-05-09T22:23:46.130Z,9.90
2023-05-09T22:26:16.736Z,9.80
2023-05-09T22:28:44.716Z,9.80
2023-05-09T22:31:14.037Z,9.80
2023-05-09T22:33:42.037Z,9.70
2023-05-09T22:36:10.110Z,9.70
2023-05-09T22:38:38.287Z,9.60
2023-05-09T22:41:06.282Z,9.60
2023-05-09T22:43:39.198Z,9.50
2023-05-09T22:46:07.792Z,9.50
2023-05-09T22:48:37.184Z,9.50
2023-05-09T22:51:06.570Z,9.50
2023-05-09T22:53:34.570Z,9.50
2023-05-09T22:56:02.768Z,9.40
2023-05-09T22:58:30.745Z,9.40
2023-05-09T23:00:58.865Z,9.40
2023-05-09T23:03:27.023Z,9.40
2023-05-09T23:05:56.577Z,9.30
2023-05-09T23:08:24.546Z,9.30
2023-05-09T23:10:55.782Z,9.30
2023-05-09T23:13:25.964Z,9.20
2023-05-09T23:15:54.034Z,9.20
2023-05-09T23:18:23.780Z,9.20
2023-05-09T23:20:51.892Z,9.20
2023-05-09T23:23:21.267Z,9.10
2023-05-09T23:25:51.591Z,9.10
2023-05-09T23:28:20.302Z,9.10
2023-05-09T23:30:50.346Z,9.10
2023-05-09T23:33:18.667Z,9.10
2023-05-09T23:35:46.614Z,9.00
2023-05-09T23:38:14.865Z,9.10
2023-05-09T23:40:46.705Z,9.00
2023-05-09T23:43:15.007Z,9.00
2023-05-09T23:45:43.027Z,9.00
2023-05-09T23:48:11.103Z,9.00
2023-05-09T23:50:39.054Z,9.00
2023-05-09T23:53:07.112Z,8.90
2023-05-09T23:55:35.548Z,8.90
2023-05-09T23:58:04.893Z,8.80
